createdAt,value
2019-05-20T00:00:29.847Z,80.17
2019-05-20T00:01:10.423Z,80.13
2019-05-20T00:01:50.998Z,79.55
2019-05-20T00:02:31.584Z,79.6
2019-05-20T00:03:12.200Z,79.84
2019-05-20T00:03:52.788Z,79.6
2019-05-20T00:04:33.408Z,79.84
2019-05-20T00:05:13.972Z,79.84
2019-05-20T00:05:54.657Z,79.84
2019-05-20T00:06:35.303Z,80.04
2019-05-20T00:07:15.921Z,80.07
2019-05-20T00:07:56.513Z,79.65
2019-05-20T00:08:37.126Z,79.65
2019-05-20T00:09:17.738Z,79.84
2019-05-20T00:09:58.330Z,79.84
2019-05-20T00:10:38.906Z,80.32
2019-05-20T00:11:19.458Z,80.22
2019-05-20T00:12:00.063Z,80.32
2019-05-20T00:12:40.661Z,80.13
2019-05-20T00:15:39.483Z,79.94
2019-05-20T00:16:20.052Z,80.13
2019-05-20T00:17:00.704Z,80.32
2019-05-20T00:17:41.310Z,80.32
2019-05-20T00:18:21.884Z,80.22
2019-05-20T00:19:02.501Z,80.61
2019-05-20T00:19:43.086Z,80.9
2019-05-20T00:20:23.717Z,80.9
2019-05-20T00:21:04.271Z,80.71
2019-05-20T00:21:44.889Z,80.9
2019-05-20T00:22:25.474Z,80.61
2019-05-20T00:23:06.100Z,80.71
2019-05-20T00:23:46.678Z,80.71
2019-05-20T00:24:27.246Z,80.9
2019-05-20T00:25:07.838Z,81.09
2019-05-20T00:25:48.428Z,81.19
2019-05-20T00:26:29.003Z,81.28
2019-05-20T00:27:09.574Z,81.19
2019-05-20T00:27:50.189Z,81.09
2019-05-20T00:28:30.769Z,81.09
2019-05-20T00:29:11.345Z,80.61
2019-05-20T00:29:51.908Z,80.71
2019-05-20T00:30:32.541Z,80.9
2019-05-20T00:31:13.155Z,80.71
2019-05-20T00:31:53.695Z,80.99
2019-05-20T00:32:40.924Z,81.09
2019-05-20T00:33:14.866Z,81.09
2019-05-20T00:33:55.426Z,80.99
2019-05-20T00:34:36.004Z,80.8
2019-05-20T00:35:16.606Z,80.8
2019-05-20T00:35:57.242Z,80.9
2019-05-20T00:36:37.817Z,80.71
2019-05-20T00:37:18.403Z,80.71
2019-05-20T00:37:58.963Z,81.05
2019-05-20T00:38:39.540Z,80.99
2019-05-20T00:39:20.222Z,81.09
2019-05-20T00:40:00.809Z,81.24
2019-05-20T00:40:41.386Z,80.76
2019-05-20T00:41:21.957Z,80.8
2019-05-20T00:42:02.523Z,81.09
2019-05-20T00:42:43.148Z,81.09
2019-05-20T00:43:23.777Z,81.05
2019-05-20T00:44:04.312Z,81.05
2019-05-20T00:44:44.965Z,81.09
2019-05-20T00:45:25.590Z,80.86
2019-05-20T00:46:06.194Z,80.86
2019-05-20T00:46:46.774Z,80.9
2019-05-20T00:47:27.324Z,80.86
2019-05-20T00:48:07.910Z,80.57
2019-05-20T00:48:48.495Z,81.48
2019-05-20T00:49:29.087Z,80.86
2019-05-20T00:50:09.697Z,81.05
2019-05-20T00:50:50.247Z,80.86
2019-05-20T00:51:30.835Z,81.38
2019-05-20T00:52:11.444Z,81.63
2019-05-20T00:52:52.033Z,81.72
2019-05-20T00:53:32.651Z,81.63
2019-05-20T00:54:13.223Z,81.28
2019-05-20T00:54:53.797Z,81.19
2019-05-20T00:55:34.354Z,81.19
2019-05-20T00:56:14.926Z,81.82
2019-05-20T00:56:55.510Z,81.82
2019-05-20T00:57:36.079Z,81.67
2019-05-20T00:58:16.655Z,81.34
2019-05-20T00:58:57.222Z,81.53
2019-05-20T00:59:37.808Z,81.63
2019-05-20T01:00:18.373Z,81.63
2019-05-20T01:00:58.940Z,81.53
2019-05-20T01:01:39.558Z,81.43
2019-05-20T01:02:20.113Z,81.43
2019-05-20T01:03:00.696Z,81.72
2019-05-20T01:03:41.307Z,81.82
2019-05-20T01:04:21.914Z,81.92
2019-05-20T01:05:02.573Z,81.82
2019-05-20T01:05:43.134Z,81.82
2019-05-20T01:06:23.724Z,81.82
2019-05-20T01:07:04.358Z,81.92
2019-05-20T01:07:44.942Z,81.92
2019-05-20T01:08:25.513Z,81.92
2019-05-20T01:09:06.137Z,81.72
2019-05-20T01:09:46.710Z,82.3
2019-05-20T01:10:27.299Z,82.2
2019-05-20T01:11:07.918Z,82.1
2019-05-20T01:11:48.542Z,82.01
2019-05-20T01:12:29.157Z,82.2
2019-05-20T01:13:09.817Z,82.01
2019-05-20T01:13:50.416Z,82.59
2019-05-20T01:14:30.993Z,82.1
2019-05-20T01:15:11.585Z,82.87
2019-05-20T01:15:52.165Z,82.49
2019-05-20T01:16:32.756Z,82.2
2019-05-20T01:17:13.411Z,82.3
2019-05-20T01:17:54.044Z,82.87
2019-05-20T01:18:34.643Z,82.2
2019-05-20T01:19:15.312Z,82.4
2019-05-20T01:19:55.859Z,82.49
2019-05-20T01:20:36.431Z,82.4
2019-05-20T01:21:17.018Z,82.4
2019-05-20T01:21:57.579Z,82.3
2019-05-20T01:22:38.166Z,83.07
2019-05-20T01:23:18.737Z,82.97
2019-05-20T01:23:59.332Z,83.07
2019-05-20T01:24:39.889Z,82.87
2019-05-20T01:25:20.454Z,82.68
2019-05-20T01:26:01.133Z,82.84
2019-05-20T01:26:41.700Z,82.84
2019-05-20T01:27:22.309Z,82.59
2019-05-20T01:28:02.868Z,83.03
2019-05-20T01:28:43.434Z,83.03
2019-05-20T01:29:24.010Z,82.84
2019-05-20T01:30:04.618Z,82.93
2019-05-20T01:30:45.225Z,83.22
2019-05-20T01:31:25.791Z,82.93
2019-05-20T01:32:06.350Z,83.12
2019-05-20T01:32:46.939Z,82.93
2019-05-20T01:33:27.525Z,83.22
2019-05-20T01:34:08.139Z,83.31
2019-05-20T01:34:48.671Z,83.12
2019-05-20T01:35:29.285Z,83.12
2019-05-20T01:36:09.840Z,82.93
2019-05-20T01:36:50.444Z,83.16
2019-05-20T01:37:31.088Z,83.12
2019-05-20T01:38:11.686Z,83.7
2019-05-20T01:38:52.251Z,83.31
2019-05-20T01:39:32.891Z,83.31
2019-05-20T01:40:13.503Z,83.51
2019-05-20T01:40:54.076Z,83.12
2019-05-20T01:41:34.631Z,83.6
2019-05-20T01:42:15.175Z,83.31
2019-05-20T01:42:55.790Z,83.51
2019-05-20T01:43:36.393Z,83.41
2019-05-20T01:44:16.966Z,83.7
2019-05-20T01:44:57.650Z,83.7
2019-05-20T01:45:38.266Z,83.41
2019-05-20T01:46:18.911Z,83.7
2019-05-20T01:49:12.651Z,83.51
2019-05-20T01:49:53.211Z,83.6
2019-05-20T01:50:33.787Z,83.51
2019-05-20T01:51:14.374Z,83.51
2019-05-20T01:51:54.959Z,83.41
2019-05-20T01:52:35.560Z,83.41
2019-05-20T01:53:16.132Z,83.51
2019-05-20T01:53:56.687Z,83.31
2019-05-20T01:54:37.323Z,83.31
2019-05-20T01:55:17.866Z,83.41
2019-05-20T01:55:58.483Z,83.7
2019-05-20T01:56:39.054Z,83.74
2019-05-20T01:59:37.870Z,83.51
2019-05-20T02:00:18.476Z,83.22
2019-05-20T02:00:59.050Z,83.41
2019-05-20T02:01:39.634Z,83.41
2019-05-20T02:02:20.201Z,83.03
2019-05-20T02:03:00.804Z,83.22
2019-05-20T02:03:41.382Z,82.93
2019-05-20T02:04:21.948Z,83.12
2019-05-20T02:05:02.544Z,82.84
2019-05-20T02:05:43.151Z,83.22
2019-05-20T02:06:23.689Z,83.41
2019-05-20T02:07:04.301Z,83.7
2019-05-20T02:07:44.906Z,83.7
2019-05-20T02:08:25.483Z,83.7
2019-05-20T02:09:06.074Z,83.8
2019-05-20T02:09:46.642Z,83.7
2019-05-20T02:10:27.227Z,83.7
2019-05-20T02:11:07.790Z,83.89
2019-05-20T02:11:51.098Z,83.41
2019-05-20T02:12:31.642Z,83.98
2019-05-20T02:13:12.226Z,83.51
2019-05-20T02:13:52.774Z,83.51
2019-05-20T02:14:33.411Z,83.6
2019-05-20T02:15:13.977Z,83.7
2019-05-20T02:15:54.546Z,83.51
2019-05-20T02:16:35.156Z,83.7
2019-05-20T02:17:15.735Z,83.51
2019-05-20T02:17:56.355Z,83.12
2019-05-20T02:18:36.931Z,83.31
2019-05-20T02:19:17.526Z,83.8
2019-05-20T02:19:58.136Z,83.41
2019-05-20T02:20:38.747Z,83.51
2019-05-20T02:21:19.322Z,83.51
2019-05-20T02:21:59.930Z,83.7
2019-05-20T02:22:40.505Z,83.8
2019-05-20T02:23:21.361Z,83.8
2019-05-20T02:24:01.935Z,83.8
2019-05-20T02:24:42.522Z,83.6
2019-05-20T02:25:23.085Z,83.51
2019-05-20T02:26:03.683Z,83.6
2019-05-20T02:26:44.240Z,83.7
2019-05-20T02:27:24.823Z,83.89
2019-05-20T02:28:05.418Z,83.41
2019-05-20T02:28:46.013Z,83.51
2019-05-20T02:29:26.589Z,83.89
2019-05-20T02:30:07.164Z,83.7
2019-05-20T02:30:47.793Z,83.6
2019-05-20T02:31:28.430Z,83.51
2019-05-20T02:32:08.999Z,83.89
2019-05-20T02:32:49.571Z,83.6
2019-05-20T02:33:47.756Z,83.7
2019-05-20T02:34:10.816Z,83.51
2019-05-20T02:34:51.401Z,83.6
2019-05-20T02:35:32.047Z,83.6
2019-05-20T02:36:12.627Z,83.7
2019-05-20T02:36:53.182Z,83.41
2019-05-20T02:37:33.797Z,83.31
2019-05-20T02:38:14.415Z,83.6
2019-05-20T02:38:54.995Z,83.89
2019-05-20T02:39:35.564Z,83.7
2019-05-20T02:40:16.146Z,83.51
2019-05-20T02:40:56.761Z,83.51
2019-05-20T02:41:37.343Z,83.51
2019-05-20T02:42:17.923Z,83.51
2019-05-20T02:42:58.508Z,83.51
2019-05-20T02:43:39.108Z,83.7
2019-05-20T02:44:19.700Z,83.8
2019-05-20T02:45:00.307Z,83.6
2019-05-20T02:45:40.890Z,83.51
2019-05-20T02:46:21.432Z,83.7
2019-05-20T02:47:02.018Z,83.75
2019-05-20T02:47:42.636Z,83.41
2019-05-20T02:48:23.261Z,83.37
2019-05-20T02:49:03.778Z,83.65
2019-05-20T02:49:44.361Z,83.65
2019-05-20T02:50:24.974Z,83.94
2019-05-20T02:51:05.514Z,83.85
2019-05-20T02:51:46.075Z,83.47
2019-05-20T02:52:26.647Z,83.6
2019-05-20T02:53:07.247Z,83.6
2019-05-20T02:53:47.852Z,83.89
2019-05-20T02:54:28.438Z,83.8
2019-05-20T02:55:09.000Z,84.08
2019-05-20T02:55:49.586Z,84.08
2019-05-20T02:56:30.189Z,84.14
2019-05-20T02:57:10.753Z,84.23
2019-05-20T02:57:51.326Z,84.23
2019-05-20T02:58:31.927Z,84.23
2019-05-20T02:59:12.518Z,84.33
2019-05-20T02:59:53.114Z,84.37
2019-05-20T03:00:33.681Z,84.14
2019-05-20T03:01:14.233Z,84.33
2019-05-20T03:01:54.794Z,84.04
2019-05-20T03:02:35.358Z,84.14
2019-05-20T03:03:15.964Z,83.85
2019-05-20T03:04:10.448Z,83.85
2019-05-20T03:04:37.200Z,83.94
2019-05-20T03:05:17.800Z,83.89
2019-05-20T03:05:58.385Z,83.85
2019-05-20T03:06:39.004Z,83.89
2019-05-20T03:07:19.591Z,83.94
2019-05-20T03:08:00.201Z,83.85
2019-05-20T03:08:40.779Z,83.94
2019-05-20T03:09:21.378Z,83.85
2019-05-20T03:10:01.964Z,83.85
2019-05-20T03:10:42.526Z,83.85
2019-05-20T03:11:23.217Z,84.04
2019-05-20T03:12:03.786Z,84.23
2019-05-20T03:12:44.380Z,84.14
2019-05-20T03:13:24.921Z,84.04
2019-05-20T03:14:05.507Z,84.04
2019-05-20T03:14:46.083Z,84.04
2019-05-20T03:15:26.639Z,84.04
2019-05-20T03:16:07.252Z,84.23
2019-05-20T03:16:47.803Z,84.23
2019-05-20T03:17:28.395Z,83.94
2019-05-20T03:18:09.052Z,84.23
2019-05-20T03:18:49.596Z,84.23
2019-05-20T03:19:30.181Z,83.94
2019-05-20T03:20:10.773Z,84.61
2019-05-20T03:20:51.352Z,84.42
2019-05-20T03:21:31.939Z,84.14
2019-05-20T03:22:12.558Z,84.61
2019-05-20T03:22:53.095Z,84.42
2019-05-20T03:23:33.934Z,84.42
2019-05-20T03:24:14.512Z,84.52
2019-05-20T03:24:55.102Z,84.91
2019-05-20T03:25:35.700Z,84.81
2019-05-20T03:26:16.251Z,84.61
2019-05-20T03:26:56.822Z,84.52
2019-05-20T03:27:37.385Z,84.52
2019-05-20T03:28:17.983Z,84.71
2019-05-20T03:28:58.621Z,84.52
2019-05-20T03:29:39.252Z,84.61
2019-05-20T03:30:19.842Z,84.52
2019-05-20T03:31:00.449Z,84.52
2019-05-20T03:31:40.989Z,84.81
2019-05-20T03:32:21.544Z,84.42
2019-05-20T03:33:02.126Z,84.61
2019-05-20T03:33:42.731Z,84.91
2019-05-20T03:34:42.869Z,85.1
2019-05-20T03:35:03.923Z,84.91
2019-05-20T03:35:44.480Z,85.19
2019-05-20T03:36:25.038Z,84.91
2019-05-20T03:37:05.626Z,84.81
2019-05-20T03:37:46.233Z,85.1
2019-05-20T03:38:26.803Z,84.91
2019-05-20T03:39:07.350Z,85
2019-05-20T03:39:47.926Z,84.52
2019-05-20T03:40:28.510Z,85
2019-05-20T03:41:09.103Z,85.28
2019-05-20T03:41:49.682Z,85.38
2019-05-20T03:42:30.316Z,85.1
2019-05-20T03:43:10.858Z,84.81
2019-05-20T03:43:51.402Z,85
2019-05-20T03:44:31.989Z,84.52
2019-05-20T03:45:12.587Z,85.19
2019-05-20T03:45:53.259Z,85.1
2019-05-20T03:46:33.873Z,85.38
2019-05-20T03:47:14.440Z,85.38
2019-05-20T03:47:55.031Z,85.28
2019-05-20T03:48:35.688Z,85.1
2019-05-20T03:49:16.254Z,84.91
2019-05-20T03:49:56.854Z,85.38
2019-05-20T03:50:37.451Z,85.38
2019-05-20T03:51:18.033Z,84.91
2019-05-20T03:51:58.645Z,85
2019-05-20T03:52:39.214Z,84.81
2019-05-20T03:53:19.826Z,84.81
2019-05-20T03:54:00.411Z,85.38
2019-05-20T03:54:41.018Z,85.58
2019-05-20T03:55:21.612Z,85.19
2019-05-20T03:56:02.189Z,85.28
2019-05-20T03:56:42.767Z,85.28
2019-05-20T03:57:23.359Z,85.28
2019-05-20T03:58:03.921Z,85.38
2019-05-20T03:58:44.508Z,85.38
2019-05-20T03:59:25.092Z,85.48
2019-05-20T04:00:05.728Z,84.52
2019-05-20T04:00:46.274Z,85.1
2019-05-20T04:01:26.895Z,85.48
2019-05-20T04:02:07.468Z,85.48
2019-05-20T04:02:48.052Z,85.67
2019-05-20T04:03:28.642Z,85.67
2019-05-20T04:04:09.289Z,85.28
2019-05-20T04:05:01.198Z,85.28
2019-05-20T04:05:30.445Z,85.19
2019-05-20T04:06:11.034Z,85.28
2019-05-20T04:06:51.626Z,85.19
2019-05-20T04:07:32.168Z,85.1
2019-05-20T04:08:12.750Z,85.48
2019-05-20T04:08:53.370Z,85.1
2019-05-20T04:09:33.942Z,85.58
2019-05-20T04:10:14.485Z,85.48
2019-05-20T04:10:55.087Z,85.58
2019-05-20T04:11:35.736Z,85.1
2019-05-20T04:12:16.296Z,85.19
2019-05-20T04:12:56.888Z,85.28
2019-05-20T04:13:37.508Z,85.28
2019-05-20T04:14:18.085Z,85.19
2019-05-20T04:14:58.804Z,85.38
2019-05-20T04:15:39.377Z,85.38
2019-05-20T04:16:19.959Z,85.38
2019-05-20T04:17:00.561Z,85.38
2019-05-20T04:17:41.212Z,85.28
2019-05-20T04:18:21.817Z,85.28
2019-05-20T04:19:02.405Z,85.28
2019-05-20T04:19:43.000Z,85.28
2019-05-20T04:20:23.566Z,85.38
2019-05-20T04:21:04.194Z,85.28
2019-05-20T04:21:44.796Z,84.81
2019-05-20T04:22:25.386Z,84.81
2019-05-20T04:23:06.254Z,85.38
2019-05-20T04:23:46.875Z,85.38
2019-05-20T04:24:27.438Z,85.38
2019-05-20T04:25:08.022Z,85.28
2019-05-20T04:25:48.617Z,85.19
2019-05-20T04:26:29.207Z,85.58
2019-05-20T04:27:09.776Z,85.58
2019-05-20T04:27:50.364Z,85.19
2019-05-20T04:28:31.052Z,85.48
2019-05-20T04:29:11.638Z,85.28
2019-05-20T04:29:52.246Z,85.58
2019-05-20T04:30:32.819Z,85.38
2019-05-20T04:31:13.402Z,85.28
2019-05-20T04:31:53.954Z,85.67
2019-05-20T04:32:34.566Z,85.58
2019-05-20T04:33:15.695Z,85.38
2019-05-20T04:33:56.333Z,84.91
2019-05-20T04:34:37.098Z,84.81
2019-05-20T04:35:22.675Z,84.71
2019-05-20T04:35:59.022Z,85
2019-05-20T04:36:39.997Z,85
2019-05-20T04:37:20.640Z,84.52
2019-05-20T04:38:01.402Z,84.85
2019-05-20T04:38:42.268Z,84.52
2019-05-20T04:39:23.122Z,84.52
2019-05-20T04:40:03.768Z,84.75
2019-05-20T04:40:44.333Z,84.95
2019-05-20T04:41:24.945Z,84.81
2019-05-20T04:42:06.818Z,84.95
2019-05-20T04:42:47.036Z,84.81
2019-05-20T04:43:27.605Z,84.66
2019-05-20T04:44:08.426Z,84.61
2019-05-20T04:44:49.011Z,84.33
2019-05-20T04:45:29.674Z,84.37
2019-05-20T04:46:10.264Z,84.52
2019-05-20T04:46:51.067Z,84.95
2019-05-20T04:47:31.712Z,84.66
2019-05-20T04:48:13.786Z,84.85
2019-05-20T04:48:53.230Z,84.52
2019-05-20T04:49:33.980Z,84.61
2019-05-20T04:50:14.608Z,84.56
2019-05-20T04:50:55.324Z,84.95
2019-05-20T04:51:35.940Z,85.04
2019-05-20T04:52:16.541Z,84.18
2019-05-20T04:52:57.101Z,83.94
2019-05-20T04:53:37.702Z,83.98
2019-05-20T04:54:18.295Z,83.75
2019-05-20T04:54:58.872Z,83.98
2019-05-20T04:55:39.455Z,84.33
2019-05-20T04:56:20.056Z,84.18
2019-05-20T04:57:00.698Z,83.89
2019-05-20T04:57:41.273Z,83.98
2019-05-20T04:58:21.866Z,83.75
2019-05-20T04:59:02.471Z,83.89
2019-05-20T04:59:43.042Z,83.56
2019-05-20T05:00:23.584Z,83.8
2019-05-20T05:01:04.150Z,83.65
2019-05-20T05:01:44.726Z,83.94
2019-05-20T05:02:25.361Z,84.18
2019-05-20T05:03:05.937Z,83.98
2019-05-20T05:03:46.535Z,83.51
2019-05-20T05:04:27.120Z,83.7
2019-05-20T05:05:07.768Z,83.6
2019-05-20T05:05:48.361Z,83.7
2019-05-20T05:06:28.984Z,83.51
2019-05-20T05:07:09.578Z,83.7
2019-05-20T05:07:50.189Z,83.98
2019-05-20T05:08:30.819Z,83.6
2019-05-20T05:09:11.379Z,83.7
2019-05-20T05:09:51.940Z,83.7
2019-05-20T05:10:32.641Z,83.7
2019-05-20T05:11:13.213Z,83.6
2019-05-20T05:11:53.758Z,83.8
2019-05-20T05:12:34.348Z,83.89
2019-05-20T05:13:14.909Z,83.8
2019-05-20T05:13:55.478Z,83.7
2019-05-20T05:14:36.170Z,84.27
2019-05-20T05:15:16.749Z,83.6
2019-05-20T05:15:57.503Z,83.89
2019-05-20T05:16:38.127Z,83.51
2019-05-20T05:17:18.760Z,83.6
2019-05-20T05:20:32.746Z,83.03
2019-05-20T05:21:13.382Z,83.03
2019-05-20T05:21:53.993Z,82.74
2019-05-20T05:22:34.597Z,82.35
2019-05-20T05:23:15.267Z,82.93
2019-05-20T05:23:59.044Z,82.35
2019-05-20T05:24:36.417Z,81.97
2019-05-20T05:25:17.056Z,82.16
2019-05-20T05:25:57.633Z,82.26
2019-05-20T05:26:38.503Z,81.3
2019-05-20T05:27:19.070Z,81.01
2019-05-20T05:27:59.652Z,80.38
2019-05-20T05:28:40.252Z,80.28
2019-05-20T05:29:20.818Z,79.8
2019-05-20T05:30:01.589Z,79.71
2019-05-20T05:30:42.104Z,79.71
2019-05-20T05:31:22.901Z,79.13
2019-05-20T05:32:03.482Z,78.59
2019-05-20T05:32:44.980Z,78.5
2019-05-20T05:33:24.697Z,78.11
2019-05-20T05:34:05.327Z,77.92
2019-05-20T05:34:45.931Z,78.11
2019-05-20T05:35:26.555Z,77.44
2019-05-20T05:36:07.250Z,77.83
2019-05-20T05:36:48.027Z,77.63
2019-05-20T05:37:29.165Z,77.34
2019-05-20T05:38:09.946Z,77.15
2019-05-20T05:38:50.937Z,77.15
2019-05-20T05:39:31.736Z,77.15
2019-05-20T05:40:12.460Z,76.71
2019-05-20T05:40:53.305Z,76.61
2019-05-20T05:41:33.884Z,76.61
2019-05-20T05:42:14.560Z,76.52
2019-05-20T05:42:55.113Z,76.23
2019-05-20T05:43:35.778Z,76.23
2019-05-20T05:44:16.358Z,76.42
2019-05-20T05:44:57.000Z,76.52
2019-05-20T05:45:37.621Z,75.75
2019-05-20T05:46:18.252Z,75.94
2019-05-20T05:46:58.849Z,76.04
2019-05-20T05:47:39.457Z,75.75
2019-05-20T05:48:20.054Z,75.65
2019-05-20T05:49:00.656Z,75.56
2019-05-20T05:49:41.259Z,75.94
2019-05-20T05:50:21.862Z,75.46
2019-05-20T05:51:02.603Z,75.65
2019-05-20T05:51:43.147Z,75.11
2019-05-20T05:52:23.735Z,75.21
2019-05-20T05:53:04.307Z,74.73
2019-05-20T05:53:44.865Z,74.05
2019-05-20T05:54:25.533Z,73.57
2019-05-20T05:55:06.272Z,73.8
2019-05-20T05:55:46.760Z,73.13
2019-05-20T05:56:27.490Z,73.22
2019-05-20T05:57:08.004Z,73.22
2019-05-20T05:57:48.597Z,73.22
2019-05-20T05:58:29.312Z,72.74
2019-05-20T05:59:09.885Z,72.65
2019-05-20T05:59:50.496Z,72.59
2019-05-20T06:00:31.081Z,72.2
2019-05-20T06:01:11.709Z,72.2
2019-05-20T06:01:52.295Z,71.81
2019-05-20T06:02:32.894Z,71.91
2019-05-20T06:03:13.497Z,71.91
2019-05-20T06:03:54.239Z,71.81
2019-05-20T06:04:34.882Z,71.62
2019-05-20T06:05:15.487Z,71.43
2019-05-20T06:06:10.543Z,71.43
2019-05-20T06:06:36.998Z,71.53
2019-05-20T06:07:17.543Z,70.95
2019-05-20T06:07:58.120Z,70.98
2019-05-20T06:08:38.903Z,70.66
2019-05-20T06:09:19.468Z,70.6
2019-05-20T06:10:00.097Z,70.7
2019-05-20T06:10:40.711Z,70.89
2019-05-20T06:11:21.313Z,71.08
2019-05-20T06:12:01.918Z,70.7
2019-05-20T06:12:42.494Z,70.21
2019-05-20T06:13:23.229Z,70.5
2019-05-20T06:14:03.750Z,70.5
2019-05-20T06:14:44.360Z,71.08
2019-05-20T06:15:24.948Z,71.18
2019-05-20T06:16:05.543Z,70.98
2019-05-20T06:16:46.130Z,70.98
2019-05-20T06:17:26.686Z,70.6
2019-05-20T06:18:07.258Z,70.98
2019-05-20T06:18:47.964Z,70.98
2019-05-20T06:19:28.528Z,69.96
2019-05-20T06:20:09.147Z,69.48
2019-05-20T06:20:49.771Z,69.38
2019-05-20T06:21:30.411Z,68.71
2019-05-20T06:22:14.277Z,68.04
2019-05-20T06:22:52.097Z,67.88
2019-05-20T06:23:32.767Z,67.1
2019-05-20T06:24:13.353Z,66.91
2019-05-20T06:24:53.985Z,67.49
2019-05-20T06:25:34.598Z,67.68
2019-05-20T06:26:15.177Z,68.01
2019-05-20T06:26:55.943Z,67.04
2019-05-20T06:27:36.834Z,67.14
2019-05-20T06:28:17.337Z,66.46
2019-05-20T06:28:58.184Z,66.56
2019-05-20T06:29:38.885Z,66.46
2019-05-20T06:30:19.496Z,65.88
2019-05-20T06:31:00.061Z,64.56
2019-05-20T06:31:40.624Z,64.86
2019-05-20T06:32:21.230Z,64.86
2019-05-20T06:33:01.798Z,63.7
2019-05-20T06:33:42.391Z,63.47
2019-05-20T06:34:22.974Z,64.18
2019-05-20T06:35:03.549Z,64.24
2019-05-20T06:35:44.148Z,64.05
2019-05-20T06:36:27.125Z,64.63
2019-05-20T06:37:05.414Z,64.92
2019-05-20T06:37:45.987Z,65.11
2019-05-20T06:38:26.607Z,65.24
2019-05-20T06:39:07.377Z,65.24
2019-05-20T06:39:51.025Z,64.95
2019-05-20T06:40:28.483Z,64.56
2019-05-20T06:41:09.050Z,64.15
2019-05-20T06:41:49.662Z,63.85
2019-05-20T06:42:30.240Z,64.34
2019-05-20T06:43:10.976Z,64.63
2019-05-20T06:43:51.651Z,64.76
2019-05-20T06:44:32.314Z,64.76
2019-05-20T06:45:12.914Z,64.95
2019-05-20T06:45:53.509Z,63.6
2019-05-20T06:46:34.069Z,63.6
2019-05-20T06:47:14.661Z,63.6
2019-05-20T06:47:55.751Z,63.31
2019-05-20T06:48:36.475Z,63.15
2019-05-20T06:49:17.087Z,63.05
2019-05-20T06:49:57.653Z,63.89
2019-05-20T06:50:38.247Z,63.73
2019-05-20T06:51:18.845Z,64.11
2019-05-20T06:51:59.454Z,63.82
2019-05-20T06:52:40.050Z,62.76
2019-05-20T06:53:20.683Z,62.86
2019-05-20T06:54:01.283Z,63.05
2019-05-20T06:54:41.937Z,62.86
2019-05-20T06:55:22.539Z,63.05
2019-05-20T06:56:03.117Z,63.43
2019-05-20T06:56:43.706Z,62.18
2019-05-20T06:57:24.261Z,62.18
2019-05-20T06:58:04.835Z,62.28
2019-05-20T06:58:45.422Z,62.28
2019-05-20T06:59:26.008Z,62.28
2019-05-20T07:00:06.611Z,62.37
2019-05-20T07:00:47.195Z,62.95
2019-05-20T07:01:27.781Z,62.76
2019-05-20T07:02:08.374Z,63.24
2019-05-20T07:02:51.944Z,63.08
2019-05-20T07:03:29.576Z,62.86
2019-05-20T07:04:10.179Z,62.89
2019-05-20T07:04:50.765Z,62.89
2019-05-20T07:05:31.362Z,62.7
2019-05-20T07:06:11.969Z,62.6
2019-05-20T07:06:52.688Z,62.31
2019-05-20T07:07:33.286Z,60.86
2019-05-20T07:08:13.875Z,60.86
2019-05-20T07:08:54.509Z,61.05
2019-05-20T07:09:35.092Z,60.86
2019-05-20T07:10:15.663Z,60.86
2019-05-20T07:10:56.303Z,61.05
2019-05-20T07:11:36.888Z,61.34
2019-05-20T07:12:17.501Z,61.05
2019-05-20T07:12:58.180Z,60.57
2019-05-20T07:13:38.741Z,60.09
2019-05-20T07:14:19.374Z,60.76
2019-05-20T07:14:59.971Z,60.6
2019-05-20T07:15:40.561Z,59.34
2019-05-20T07:16:21.178Z,60.02
2019-05-20T07:17:01.838Z,60.02
2019-05-20T07:17:42.414Z,59.53
2019-05-20T07:18:23.001Z,59.73
2019-05-20T07:19:03.634Z,58.47
2019-05-20T07:19:44.224Z,58.18
2019-05-20T07:20:24.841Z,58.67
2019-05-20T07:21:05.421Z,58.86
2019-05-20T07:21:46.087Z,59.38
2019-05-20T07:22:26.684Z,59.76
2019-05-20T07:23:07.346Z,59.86
2019-05-20T07:23:47.937Z,59.38
2019-05-20T07:24:28.508Z,58.98
2019-05-20T07:25:09.087Z,57.92
2019-05-20T07:25:49.684Z,57.54
2019-05-20T07:26:30.287Z,57.34
2019-05-20T07:27:10.915Z,57.82
2019-05-20T07:27:51.483Z,57.15
2019-05-20T07:28:32.078Z,57.15
2019-05-20T07:29:12.671Z,57.44
2019-05-20T07:29:53.263Z,57.66
2019-05-20T07:30:33.858Z,58.44
2019-05-20T07:31:14.468Z,58.04
2019-05-20T07:31:55.042Z,57.37
2019-05-20T07:32:35.661Z,56.98
2019-05-20T07:33:16.255Z,57.08
2019-05-20T07:33:56.842Z,56.21
2019-05-20T07:34:37.532Z,56.4
2019-05-20T07:35:29.235Z,56.88
2019-05-20T07:35:58.801Z,57.46
2019-05-20T07:36:39.392Z,57.08
2019-05-20T07:37:19.953Z,56.5
2019-05-20T07:38:00.614Z,56.5
2019-05-20T07:38:41.259Z,56.3
2019-05-20T07:39:21.912Z,55.73
2019-05-20T07:40:02.491Z,56.11
2019-05-20T07:40:43.095Z,56.3
2019-05-20T07:41:23.672Z,55.43
2019-05-20T07:42:04.322Z,55.34
2019-05-20T07:42:44.934Z,55.73
2019-05-20T07:43:25.487Z,55.53
2019-05-20T07:44:06.120Z,56.6
2019-05-20T07:44:46.703Z,56.76
2019-05-20T07:45:27.306Z,57.05
2019-05-20T07:46:07.904Z,57.34
2019-05-20T07:46:48.478Z,57.54
2019-05-20T07:47:29.065Z,57.54
2019-05-20T07:48:09.657Z,57.82
2019-05-20T07:48:50.384Z,57.63
2019-05-20T07:49:30.919Z,58.8
2019-05-20T07:50:11.501Z,57.92
2019-05-20T07:50:52.162Z,57.82
2019-05-20T07:51:32.729Z,58.12
2019-05-20T07:52:13.382Z,56.73
2019-05-20T07:52:53.987Z,57.44
2019-05-20T07:53:34.591Z,58.12
2019-05-20T07:54:15.270Z,59.08
2019-05-20T07:54:55.848Z,58.8
2019-05-20T07:55:36.424Z,59.18
2019-05-20T07:56:16.987Z,59.5
2019-05-20T07:56:57.600Z,58.92
2019-05-20T07:57:38.240Z,58.92
2019-05-20T07:58:18.855Z,59.11
2019-05-20T07:58:59.467Z,58.44
2019-05-20T07:59:40.068Z,57.56
2019-05-20T08:00:20.688Z,58.14
2019-05-20T08:01:01.315Z,56.98
2019-05-20T08:01:41.937Z,56.7
2019-05-20T08:02:22.558Z,57.76
2019-05-20T08:03:03.205Z,57.79
2019-05-20T08:03:43.761Z,55.63
2019-05-20T08:04:24.380Z,56.04
2019-05-20T08:05:05.187Z,56.11
2019-05-20T08:05:45.605Z,55.94
2019-05-20T08:06:26.225Z,56.92
2019-05-20T08:07:24.660Z,56.72
2019-05-20T08:07:52.587Z,56.52
2019-05-20T08:08:28.174Z,56.24
2019-05-20T08:09:08.758Z,56.34
2019-05-20T08:09:49.493Z,57.4
2019-05-20T08:10:30.141Z,56.72
2019-05-20T08:11:10.713Z,57.01
2019-05-20T08:13:23.623Z,56.34
2019-05-20T08:14:04.189Z,56.26
2019-05-20T08:14:44.778Z,55.78
2019-05-20T08:15:25.337Z,55.2
2019-05-20T08:16:05.913Z,54.91
2019-05-20T08:16:46.472Z,55
2019-05-20T08:17:27.072Z,54.91
2019-05-20T08:18:07.680Z,54.62
2019-05-20T08:18:48.270Z,54.91
2019-05-20T08:19:28.860Z,55.3
2019-05-20T08:20:09.464Z,55.49
2019-05-20T08:20:50.044Z,53.85
2019-05-20T08:21:30.621Z,54.33
2019-05-20T08:22:11.194Z,53.94
2019-05-20T08:22:51.771Z,53.85
2019-05-20T08:23:32.657Z,53.75
2019-05-20T08:24:13.214Z,53.65
2019-05-20T08:24:53.795Z,55
2019-05-20T08:25:34.364Z,55.2
2019-05-20T08:26:14.963Z,55.1
2019-05-20T08:26:55.620Z,55
2019-05-20T08:27:36.120Z,53.55
2019-05-20T08:28:16.738Z,52.68
2019-05-20T08:28:57.247Z,53.65
2019-05-20T08:29:37.821Z,53.45
2019-05-20T08:30:18.368Z,54.03
2019-05-20T08:30:58.934Z,53.36
2019-05-20T08:31:39.504Z,52.78
2019-05-20T08:32:20.073Z,52.1
2019-05-20T08:33:00.653Z,52.87
2019-05-20T08:33:41.236Z,52.68
2019-05-20T08:34:21.831Z,52.97
2019-05-20T08:35:02.383Z,52.97
2019-05-20T08:35:42.925Z,52.97
2019-05-20T08:36:23.538Z,52.78
2019-05-20T08:37:04.119Z,52.78
2019-05-20T08:37:45.891Z,52.78
2019-05-20T08:38:25.248Z,53.04
2019-05-20T08:39:05.828Z,53.81
2019-05-20T08:39:46.418Z,55.2
2019-05-20T08:40:27.022Z,53.94
2019-05-20T08:41:07.574Z,53.55
2019-05-20T08:41:48.159Z,52.85
2019-05-20T08:42:28.730Z,52.97
2019-05-20T08:43:09.290Z,52.68
2019-05-20T08:43:49.839Z,53.81
2019-05-20T08:44:30.447Z,53.85
2019-05-20T08:45:11.019Z,53.75
2019-05-20T08:45:51.557Z,53.07
2019-05-20T08:46:32.139Z,53.85
2019-05-20T08:47:12.706Z,54.91
2019-05-20T08:47:53.275Z,55
2019-05-20T08:48:33.848Z,55.78
2019-05-20T08:49:14.449Z,56.56
2019-05-20T08:49:55.117Z,55.2
2019-05-20T08:50:35.593Z,52.87
2019-05-20T08:51:16.173Z,52.78
2019-05-20T08:51:56.741Z,53.55
2019-05-20T08:52:37.310Z,53.07
2019-05-20T08:53:17.876Z,52.58
2019-05-20T08:53:58.493Z,51.13
2019-05-20T08:54:40.373Z,51.9
2019-05-20T08:55:19.702Z,52.78
2019-05-20T08:56:00.289Z,52.58
2019-05-20T08:56:40.827Z,52.68
2019-05-20T08:57:21.423Z,53.07